LGTS/SKG METAR and TAF weather

Enter ICAO airport designator
Station Type Date Time Source
LGTS METAR 2022/08/12 15:50 UTC NOAA

LGTS 121550Z 23008KT 9999 FEW025 30/16 Q1011 NOSIG


Station Type Date Time Source
LGTS Decoded METAR 2022/08/12 15:50 UTC NOAA

Thessaloniki Airport , Greece (LGTS) 40-31N 022-58E 4M
Aug 12, 2022 - 11:50 AM EDT / 2022.08.12 1550 UTC
Wind: from the SW (230 degrees) at 9 MPH (8 KT):0
Visibility: greater than 7 mile(s):0
Sky conditions: mostly clear
Temperature: 86 F (30 C)
Dew Point: 60 F (16 C)
Relative Humidity: 42%
Pressure (altimeter): 29.85 in. Hg (1011 hPa)
ob: LGTS 121550Z 23008KT 9999 FEW025 30/16 Q1011 NOSIG
cycle: 16

Station Type Date Time Source
LGTS TAF 2022/08/12 12:13 UTC NOAA

TAF LGTS 121100Z 1212/1312 VRB03KT 9999 FEW020TCU SCT025
TEMPO 1212/1218 6000 SHRA PROB40
TEMPO 1212/1218 4000 TSRA FEW018CB BKN025 PROB40
TEMPO 1309/1312 4000 TSRA FEW018CB BKN025

Example: see airport list